Purgitsville, West Virginia
Current Conditions -  °F | °C
As of 3:35 AM on Friday 19 Dec 2014 (Local Time) from KW99 Reporting Station
Overcast Overcast  
Wind Chill: 30°   Ceiling: 9500
Heat Index: 30°   Visibility: 10mi
Dew Point: 22°   Wind: 0mph
Humidity: 71%   Direction: NA
Pressure: 30.13"   Gusts: NA
Location:  39.24°N, 78.92°W
Report Text: KW99 190835Z AUTO 00000KT 10SM SCT028 SCT036 OVC095 M01/M05 A3013 RMK AO2 T10091055 PNO
Loading
Personal Weather Stations






























Interactive Weather Map New forecast layout! Learn more

10-Day Weather Forecast

Advertisements
Track Severe Weather on mobile